Time;durP1;ratioP1;P1;durP2;ratioP2;P2;SDS_P1;SDS_P2;PMS_P1;PMS_P2;Temp;Humidity;BMP_temperature;BMP_pressure;BME280_temperature;BME280_humidity;BME280_pressure;Samples;Min_cycle;Max_cycle;Signal;HPM_P1;HPM_P2
2023/06/25 00:02:00;;;;;;;5.37;4.97;;;19.30;93.50;;;;;;4903862;29;20684;-73
2023/06/25 00:04:25;;;;;;;5.80;5.30;;;19.20;93.60;;;;;;4898869;29;20182;-73
2023/06/25 00:06:51;;;;;;;5.73;5.23;;;19.20;93.80;;;;;;4905337;29;20214;-74
2023/06/25 00:09:16;;;;;;;5.80;5.20;;;19.20;94.00;;;;;;4903386;29;20555;-73
2023/06/25 00:11:42;;;;;;;5.30;4.80;;;19.20;94.10;;;;;;4903811;29;20211;-73
2023/06/25 00:14:08;;;;;;;5.90;5.40;;;19.20;94.20;;;;;;4904736;29;20237;-73
2023/06/25 00:16:33;;;;;;;6.03;5.53;;;19.10;94.40;;;;;;4906463;29;20186;-73
2023/06/25 00:19:00;;;;;;;5.27;4.87;;;19.10;94.70;;;;;;4905551;29;20193;-73
2023/06/25 00:21:27;;;;;;;5.82;5.32;;;19.10;94.90;;;;;;4906341;29;20633;-73
2023/06/25 00:23:52;;;;;;;6.03;5.53;;;19.00;95.30;;;;;;4907223;29;20191;-73
2023/06/25 00:26:18;;;;;;;5.60;5.10;;;19.00;95.40;;;;;;4931278;23;20233;-69
2023/06/25 00:28:44;;;;;;;6.27;5.67;;;19.00;95.40;;;;;;4919072;29;20233;-67
2023/06/25 00:31:12;;;;;;;6.22;5.63;;;18.80;95.60;;;;;;4914235;29;20745;-68
2023/06/25 00:33:38;;;;;;;6.00;5.50;;;18.90;95.70;;;;;;4900750;29;20195;-69
2023/06/25 00:36:08;;;;;;;6.20;5.70;;;18.80;95.90;;;;;;4899126;29;20198;-67
2023/06/25 00:38:38;;;;;;;6.00;5.50;;;18.80;96.10;;;;;;4894600;29;20186;-68
2023/06/25 00:41:08;;;;;;;5.90;5.40;;;18.80;95.80;;;;;;4903724;29;20206;-69
2023/06/25 00:43:34;;;;;;;6.45;5.85;;;18.80;96.10;;;;;;4904970;29;20190;-68
2023/06/25 00:46:00;;;;;;;6.03;5.47;;;18.80;96.30;;;;;;4903847;29;20190;-68
2023/06/25 00:48:27;;;;;;;6.85;6.20;;;18.80;96.50;;;;;;4902565;29;20183;-69
2023/06/25 00:50:53;;;;;;;5.90;5.40;;;18.80;96.60;;;;;;4906873;29;20577;-67
2023/06/25 00:53:19;;;;;;;6.13;5.53;;;18.70;96.70;;;;;;4900909;29;20183;-68
2023/06/25 00:55:50;;;;;;;5.90;5.50;;;18.30;96.70;;;;;;4901477;29;20195;-68
2023/06/25 00:58:20;;;;;;;6.07;5.57;;;18.70;97.00;;;;;;4900235;29;20229;-69
2023/06/25 01:00:47;;;;;;;6.57;6.07;;;18.60;97.10;;;;;;4898559;29;20270;-69
2023/06/25 01:03:26;;;;;;;6.68;5.20;;;18.60;97.30;;;;;;4899101;29;20552;-69
2023/06/25 01:06:20;;;;;;;7.82;5.88;;;18.60;97.40;;;;;;4902057;29;20322;-67
2023/06/25 01:08:50;;;;;;;6.10;5.60;;;18.60;97.50;;;;;;4900328;29;20542;-69
2023/06/25 01:11:16;;;;;;;6.20;5.70;;;18.50;97.60;;;;;;4900784;29;20213;-68
2023/06/25 01:13:43;;;;;;;5.78;5.28;;;18.50;98.00;;;;;;4899450;29;20191;-68
2023/06/25 01:16:08;;;;;;;6.20;5.60;;;18.50;98.00;;;;;;4898041;29;20198;-68
2023/06/25 01:18:39;;;;;;;6.67;6.07;;;18.40;98.10;;;;;;4898164;29;20558;-68
2023/06/25 01:21:08;;;;;;;6.15;5.65;;;18.30;98.40;;;;;;4899376;29;20960;-68
2023/06/25 01:23:37;;;;;;;5.70;5.30;;;18.30;98.80;;;;;;4903111;29;20252;-68
2023/06/25 01:26:03;;;;;;;6.35;5.45;;;18.30;99.00;;;;;;4898974;29;20194;-68
2023/06/25 01:28:29;;;;;;;5.80;5.30;;;18.30;99.00;;;;;;4908814;29;20714;-68
2023/06/25 01:30:54;;;;;;;6.20;5.67;;;18.20;98.80;;;;;;4903588;29;20227;-70
2023/06/25 01:33:25;;;;;;;6.30;5.70;;;18.20;99.10;;;;;;4898123;29;20194;-69
2023/06/25 01:35:53;;;;;;;6.93;6.22;;;18.20;99.40;;;;;;4900105;29;20514;-67
2023/06/25 01:38:18;;;;;;;6.50;5.90;;;18.10;99.40;;;;;;4895213;29;20724;-69
2023/06/25 01:40:44;;;;;;;6.37;5.77;;;18.60;99.90;;;;;;4904096;29;20218;-70
2023/06/25 01:43:10;;;;;;;6.40;5.90;;;18.10;99.70;;;;;;4898210;29;20202;-68
2023/06/25 01:45:35;;;;;;;6.00;5.50;;;18.10;99.80;;;;;;4902566;29;20648;-68
2023/06/25 01:48:01;;;;;;;6.10;5.60;;;18.10;99.90;;;;;;4898489;29;20194;-68
2023/06/25 01:50:27;;;;;;;5.73;5.33;;;18.00;99.90;;;;;;4905801;29;20538;-68
2023/06/25 01:52:53;;;;;;;7.27;5.90;;;17.90;99.90;;;;;;4900730;29;20217;-68
2023/06/25 01:55:18;;;;;;;6.65;6.05;;;17.80;99.90;;;;;;4905405;29;20542;-68
2023/06/25 01:57:44;;;;;;;5.50;5.10;;;17.80;99.90;;;;;;4897520;29;20242;-68
2023/06/25 02:00:11;;;;;;;6.00;5.50;;;18.10;99.90;;;;;;4898504;29;20664;-68
2023/06/25 02:02:37;;;;;;;5.95;5.45;;;17.80;99.90;;;;;;4897755;29;20335;-68
2023/06/25 02:05:03;;;;;;;6.37;5.77;;;17.70;99.90;;;;;;4894160;29;20194;-68
2023/06/25 02:07:28;;;;;;;5.80;5.30;;;17.70;99.90;;;;;;4900262;29;20178;-68
2023/06/25 02:09:54;;;;;;;6.50;5.97;;;17.70;99.90;;;;;;4900370;29;20187;-68
2023/06/25 02:12:19;;;;;;;5.83;5.23;;;17.70;99.90;;;;;;4896224;29;20692;-68
2023/06/25 02:14:45;;;;;;;6.23;5.70;;;17.60;99.90;;;;;;4906369;29;20194;-68
2023/06/25 02:17:11;;;;;;;6.07;5.57;;;17.70;99.90;;;;;;4903747;29;20194;-68
2023/06/25 02:19:36;;;;;;;6.20;5.70;;;17.60;99.90;;;;;;4900441;29;20269;-67
2023/06/25 02:22:02;;;;;;;5.93;5.43;;;17.70;99.90;;;;;;4899929;29;20300;-67
2023/06/25 02:24:27;;;;;;;6.40;5.90;;;17.50;99.90;;;;;;4901855;29;20195;-67
2023/06/25 02:26:53;;;;;;;6.13;5.63;;;17.70;99.90;;;;;;4903742;29;20727;-68
2023/06/25 02:29:19;;;;;;;7.40;5.80;;;17.30;99.90;;;;;;4904793;29;20285;-68
2023/06/25 02:31:44;;;;;;;6.67;6.07;;;17.40;99.90;;;;;;4902878;29;20556;-68
2023/06/25 02:34:10;;;;;;;6.73;6.13;;;17.40;99.90;;;;;;4906233;29;20193;-69
2023/06/25 02:36:35;;;;;;;6.97;6.27;;;17.40;99.90;;;;;;4897589;29;20190;-68
2023/06/25 02:39:01;;;;;;;6.00;5.50;;;17.40;99.90;;;;;;4905043;29;20878;-69
2023/06/25 02:41:26;;;;;;;7.10;6.57;;;17.20;99.90;;;;;;4897696;29;20841;-69
2023/06/25 02:43:52;;;;;;;6.70;6.00;;;17.10;99.90;;;;;;4898224;29;20992;-69
2023/06/25 02:46:18;;;;;;;6.57;6.00;;;17.10;99.90;;;;;;4902310;29;20183;-69
2023/06/25 02:48:43;;;;;;;6.93;6.20;;;17.20;99.90;;;;;;4896097;29;20578;-69
2023/06/25 02:51:12;;;;;;;6.93;6.20;;;17.30;99.90;;;;;;4900680;29;20234;-69
2023/06/25 02:53:37;;;;;;;6.18;5.65;;;17.30;99.90;;;;;;4896461;29;20187;-69
2023/06/25 02:56:03;;;;;;;6.60;6.10;;;17.10;99.90;;;;;;4895197;29;20194;-69
2023/06/25 02:58:29;;;;;;;6.67;6.17;;;17.10;99.90;;;;;;4896158;29;20211;-69
2023/06/25 03:00:55;;;;;;;6.77;6.07;;;17.00;99.90;;;;;;4899018;29;20471;-69
2023/06/25 03:03:20;;;;;;;6.80;6.20;;;17.20;99.90;;;;;;4896526;29;20532;-69
2023/06/25 03:05:46;;;;;;;5.77;5.20;;;17.00;99.90;;;;;;4900555;29;20661;-69
2023/06/25 03:08:11;;;;;;;6.77;6.23;;;17.10;99.90;;;;;;4896656;29;20391;-69
2023/06/25 03:10:38;;;;;;;6.77;6.17;;;17.30;99.90;;;;;;4901548;29;20197;-69
2023/06/25 03:13:04;;;;;;;7.20;6.25;;;17.20;99.90;;;;;;4901329;29;20228;-69
2023/06/25 03:15:30;;;;;;;6.10;5.60;;;17.10;99.90;;;;;;4895648;29;20194;-69
2023/06/25 03:17:56;;;;;;;6.10;5.50;;;17.10;99.90;;;;;;4902403;29;20190;-69
2023/06/25 03:20:21;;;;;;;6.43;5.80;;;17.10;99.90;;;;;;4901883;29;20558;-69
2023/06/25 03:22:48;;;;;;;6.53;5.93;;;17.00;99.90;;;;;;4902229;29;20211;-69
2023/06/25 03:25:13;;;;;;;6.30;5.80;;;16.90;99.90;;;;;;4902250;29;20198;-69
2023/06/25 03:27:40;;;;;;;6.70;6.00;;;17.00;99.90;;;;;;4896312;29;20186;-69
2023/06/25 03:30:06;;;;;;;7.50;6.80;;;17.10;99.90;;;;;;4900294;29;20190;-69
2023/06/25 03:32:32;;;;;;;6.80;6.30;;;16.90;99.90;;;;;;4895576;29;20744;-69
2023/06/25 03:34:59;;;;;;;6.63;6.07;;;17.20;99.90;;;;;;4900954;29;20515;-69
2023/06/25 03:37:24;;;;;;;6.30;5.70;;;17.00;99.90;;;;;;4894440;29;20209;-69
2023/06/25 03:39:50;;;;;;;6.47;5.87;;;16.90;99.90;;;;;;4903155;29;20561;-69
2023/06/25 03:42:16;;;;;;;7.37;6.50;;;17.00;99.90;;;;;;4897498;29;20478;-69
2023/06/25 03:44:47;;;;;;;6.67;5.73;;;17.00;99.90;;;;;;4903304;29;20714;-69
2023/06/25 03:47:13;;;;;;;6.63;6.03;;;16.90;99.90;;;;;;4900543;29;20214;-69
2023/06/25 03:49:38;;;;;;;6.40;5.77;;;17.10;99.90;;;;;;4900734;29;20229;-68
2023/06/25 03:52:04;;;;;;;7.00;6.40;;;17.00;99.90;;;;;;4891536;29;20261;-69
2023/06/25 03:54:30;;;;;;;6.78;6.18;;;16.70;99.90;;;;;;4897640;29;20633;-68
2023/06/25 03:56:56;;;;;;;6.10;5.50;;;17.00;99.90;;;;;;4899429;29;20274;-68
2023/06/25 03:59:21;;;;;;;6.40;5.80;;;17.00;99.90;;;;;;4898244;29;21215;-67
2023/06/25 04:01:47;;;;;;;6.20;5.70;;;16.90;99.90;;;;;;4901580;29;20249;-67
2023/06/25 04:04:12;;;;;;;7.30;6.60;;;16.90;99.90;;;;;;4901565;29;20313;-68
2023/06/25 04:06:38;;;;;;;6.20;5.70;;;17.10;99.90;;;;;;4898903;29;20209;-70
2023/06/25 04:09:03;;;;;;;8.57;5.90;;;16.90;99.90;;;;;;4902294;29;20183;-67
2023/06/25 04:11:29;;;;;;;7.13;6.53;;;17.00;99.90;;;;;;4898376;29;20498;-69
2023/06/25 04:13:55;;;;;;;7.13;5.93;;;16.90;99.90;;;;;;4907456;29;20192;-68
2023/06/25 04:16:20;;;;;;;7.07;6.43;;;17.00;99.90;;;;;;4902053;29;20182;-69
2023/06/25 04:18:46;;;;;;;6.60;6.00;;;17.00;99.90;;;;;;4899584;29;20202;-68
2023/06/25 04:21:11;;;;;;;6.83;6.10;;;17.00;99.90;;;;;;4897914;29;20344;-68
2023/06/25 04:23:37;;;;;;;6.63;6.13;;;17.00;99.90;;;;;;4905533;29;20187;-67
2023/06/25 04:26:02;;;;;;;6.47;5.97;;;17.10;99.90;;;;;;4898382;29;20220;-67
2023/06/25 04:28:28;;;;;;;6.60;6.00;;;17.20;99.90;;;;;;4903037;29;20183;-67
2023/06/25 04:30:54;;;;;;;6.80;6.20;;;17.10;99.90;;;;;;4913645;29;20187;-69
2023/06/25 04:33:20;;;;;;;6.63;5.80;;;17.20;99.90;;;;;;4900265;29;20246;-69
2023/06/25 04:35:46;;;;;;;7.63;6.93;;;17.20;99.90;;;;;;4902085;29;20199;-69
2023/06/25 04:38:11;;;;;;;6.87;6.27;;;17.30;99.90;;;;;;4901919;29;20194;-69
2023/06/25 04:40:38;;;;;;;7.53;6.80;;;17.60;99.90;;;;;;4900031;29;20458;-69
2023/06/25 04:43:03;;;;;;;6.50;6.00;;;17.50;99.90;;;;;;4897550;29;20422;-69
2023/06/25 04:45:29;;;;;;;6.47;5.97;;;17.60;99.90;;;;;;4899830;29;20214;-69
2023/06/25 04:47:54;;;;;;;6.67;6.07;;;17.70;99.90;;;;;;4903620;29;20187;-69
2023/06/25 04:50:20;;;;;;;6.97;6.37;;;17.70;99.90;;;;;;4902252;29;20182;-69
2023/06/25 04:52:46;;;;;;;6.80;6.20;;;17.80;99.90;;;;;;4901715;29;20298;-69
2023/06/25 04:55:12;;;;;;;6.93;6.27;;;17.90;99.90;;;;;;4901701;29;20455;-69
2023/06/25 04:57:38;;;;;;;6.73;6.13;;;18.50;99.90;;;;;;4903840;29;20191;-69
2023/06/25 05:00:05;;;;;;;6.50;5.90;;;18.20;99.90;;;;;;4898130;29;20208;-69
2023/06/25 05:02:31;;;;;;;6.97;6.47;;;18.30;99.90;;;;;;4900423;29;20221;-68
2023/06/25 05:04:56;;;;;;;6.90;6.20;;;18.30;99.90;;;;;;4901293;29;20191;-69
2023/06/25 05:07:22;;;;;;;6.70;6.10;;;18.40;99.90;;;;;;4897482;29;20225;-67
2023/06/25 05:09:47;;;;;;;6.57;5.97;;;18.50;99.90;;;;;;4900270;29;20219;-68
2023/06/25 05:12:13;;;;;;;6.50;5.90;;;18.60;99.90;;;;;;4901204;29;20222;-68
2023/06/25 05:14:39;;;;;;;6.23;5.70;;;18.60;99.90;;;;;;4901789;29;20661;-67
2023/06/25 05:17:05;;;;;;;6.10;5.50;;;18.70;99.90;;;;;;4903967;29;20200;-68
2023/06/25 05:19:30;;;;;;;6.50;6.00;;;18.80;99.90;;;;;;4899073;29;20286;-72
2023/06/25 05:21:56;;;;;;;6.40;5.90;;;19.00;99.90;;;;;;4894635;29;20210;-71
2023/06/25 05:24:21;;;;;;;6.17;5.57;;;19.10;99.90;;;;;;4904306;29;21395;-70
2023/06/25 05:26:47;;;;;;;6.63;6.07;;;19.20;99.90;;;;;;4896659;29;20288;-71
2023/06/25 05:29:13;;;;;;;6.57;5.97;;;19.30;99.70;;;;;;4901751;29;20562;-70
2023/06/25 05:31:38;;;;;;;5.73;5.33;;;19.40;99.10;;;;;;4900226;29;20214;-71
2023/06/25 05:34:04;;;;;;;6.33;5.73;;;19.50;98.90;;;;;;4898807;29;20194;-70
2023/06/25 05:36:30;;;;;;;5.73;5.23;;;19.60;98.00;;;;;;4897279;29;20191;-71
2023/06/25 05:38:55;;;;;;;6.10;5.60;;;19.70;97.90;;;;;;4901976;29;20200;-71
2023/06/25 05:41:21;;;;;;;6.50;5.90;;;19.90;97.70;;;;;;4900759;29;20218;-71
2023/06/25 05:43:47;;;;;;;6.47;5.87;;;20.10;97.70;;;;;;4914350;29;20210;-71
2023/06/25 05:46:13;;;;;;;6.53;5.97;;;20.20;97.00;;;;;;4895053;29;20190;-71
2023/06/25 05:48:39;;;;;;;6.03;5.53;;;20.30;96.00;;;;;;4896759;29;20187;-71
2023/06/25 05:51:05;;;;;;;5.80;5.30;;;20.40;95.30;;;;;;4898970;29;20182;-71
2023/06/25 05:53:47;;;;;;;6.10;5.30;;;20.50;95.30;;;;;;4898768;29;20560;-71
2023/06/25 05:56:20;;;;;;;7.13;5.68;;;20.50;94.40;;;;;;4901493;29;20273;-71
2023/06/25 05:58:47;;;;;;;6.20;5.65;;;20.70;94.50;;;;;;4898023;29;20576;-71
2023/06/25 06:01:12;;;;;;;5.80;4.93;;;20.90;93.90;;;;;;4894619;29;20222;-71
2023/06/25 06:03:38;;;;;;;5.50;5.00;;;21.00;93.20;;;;;;4896798;29;20182;-71
2023/06/25 06:06:04;;;;;;;5.22;4.82;;;21.10;92.80;;;;;;4899819;29;20636;-71
2023/06/25 06:08:30;;;;;;;5.40;4.90;;;21.10;92.60;;;;;;4900285;29;20242;-71
2023/06/25 06:10:55;;;;;;;5.93;5.33;;;21.30;92.40;;;;;;4894439;29;20201;-71
2023/06/25 06:13:21;;;;;;;5.73;5.33;;;21.40;92.30;;;;;;4915965;29;20190;-71
2023/06/25 06:15:46;;;;;;;6.20;5.60;;;21.60;92.00;;;;;;4895922;29;20713;-70
2023/06/25 06:18:12;;;;;;;6.10;5.50;;;21.70;91.40;;;;;;4897397;29;20193;-71
2023/06/25 06:20:38;;;;;;;7.00;6.40;;;21.90;91.50;;;;;;4899837;29;20297;-71
2023/06/25 06:23:03;;;;;;;6.00;5.50;;;22.00;91.70;;;;;;4903600;29;20305;-70
2023/06/25 06:25:29;;;;;;;6.67;6.00;;;22.20;91.40;;;;;;4899413;29;20622;-70
2023/06/25 06:27:55;;;;;;;6.03;5.47;;;22.30;90.80;;;;;;4894649;29;20216;-71
2023/06/25 06:30:21;;;;;;;6.00;5.53;;;22.30;89.40;;;;;;4903545;29;20191;-72
2023/06/25 06:32:49;;;;;;;9.53;5.90;;;22.50;89.60;;;;;;4902108;29;20241;-72
2023/06/25 06:35:15;;;;;;;6.50;6.00;;;22.70;89.80;;;;;;4898721;29;20534;-72
2023/06/25 06:37:41;;;;;;;6.43;5.93;;;22.80;88.30;;;;;;4895627;29;21062;-71
2023/06/25 06:40:07;;;;;;;7.30;6.20;;;22.90;87.50;;;;;;4894239;29;20229;-71
2023/06/25 06:42:35;;;;;;;6.50;6.00;;;22.90;87.00;;;;;;4897191;29;20222;-70
2023/06/25 06:45:02;;;;;;;6.93;6.33;;;22.90;87.20;;;;;;4906186;29;20458;-71
2023/06/25 06:47:27;;;;;;;5.40;5.00;;;22.90;86.50;;;;;;4901886;29;20455;-71
2023/06/25 06:49:53;;;;;;;7.20;5.67;;;23.00;87.10;;;;;;4914823;29;20546;-71
2023/06/25 06:52:25;;;;;;;6.83;5.93;;;23.10;86.80;;;;;;4894564;29;20233;-72
2023/06/25 06:54:51;;;;;;;6.00;5.40;;;23.10;86.50;;;;;;4899802;29;20230;-71
2023/06/25 06:57:16;;;;;;;6.87;6.20;;;23.20;86.70;;;;;;4892629;29;20497;-71
2023/06/25 06:59:44;;;;;;;7.93;6.57;;;23.40;85.20;;;;;;4901832;29;20198;-71
2023/06/25 07:02:09;;;;;;;6.50;6.00;;;23.60;84.00;;;;;;4896830;29;20218;-71
2023/06/25 07:04:35;;;;;;;6.07;5.47;;;23.90;84.30;;;;;;4899773;29;20458;-71
2023/06/25 07:07:00;;;;;;;6.97;6.13;;;25.50;78.70;;;;;;4897127;29;20720;-71
2023/06/25 07:09:26;;;;;;;5.97;5.47;;;27.10;72.30;;;;;;4896841;29;20188;-72
2023/06/25 07:11:52;;;;;;;7.17;5.60;;;29.40;65.40;;;;;;4897751;29;20247;-73
2023/06/25 07:14:18;;;;;;;6.17;5.67;;;32.10;56.50;;;;;;4896719;29;20694;-73
2023/06/25 07:16:44;;;;;;;5.50;5.00;;;35.20;50.20;;;;;;4896793;29;20470;-72
2023/06/25 07:19:10;;;;;;;6.60;5.07;;;36.50;43.90;;;;;;4899800;29;20182;-73
2023/06/25 07:21:36;;;;;;;6.50;5.83;;;38.50;40.30;;;;;;4898202;29;20497;-73
2023/06/25 07:24:02;;;;;;;6.03;5.63;;;38.30;37.90;;;;;;4896359;29;20656;-72
2023/06/25 07:26:27;;;;;;;6.30;5.80;;;38.10;37.20;;;;;;4897260;29;20461;-72
2023/06/25 07:28:53;;;;;;;5.90;5.50;;;39.50;36.30;;;;;;4898652;29;20202;-72
2023/06/25 07:31:20;;;;;;;5.50;5.10;;;40.90;31.10;;;;;;4901832;29;20321;-72
2023/06/25 07:33:45;;;;;;;6.57;6.17;;;42.10;30.30;;;;;;4890538;29;20586;-73
2023/06/25 07:36:11;;;;;;;6.03;5.63;;;43.60;28.20;;;;;;4902042;29;20277;-73
2023/06/25 07:38:36;;;;;;;7.00;6.50;;;43.50;26.50;;;;;;4899703;29;20190;-74
2023/06/25 07:41:02;;;;;;;6.60;6.10;;;42.00;25.80;;;;;;4903394;29;20203;-73
2023/06/25 07:43:28;;;;;;;6.43;6.00;;;41.20;26.90;;;;;;4899496;29;20615;-73
2023/06/25 07:45:53;;;;;;;6.10;5.60;;;40.30;26.70;;;;;;4896001;29;20197;-73
2023/06/25 07:48:19;;;;;;;6.90;6.40;;;41.20;27.00;;;;;;4899024;29;20194;-73
2023/06/25 07:50:45;;;;;;;7.10;6.40;;;41.40;26.50;;;;;;4899874;29;20190;-74
2023/06/25 07:53:10;;;;;;;7.13;6.63;;;42.00;26.10;;;;;;4898274;29;20471;-74
2023/06/25 07:55:40;;;;;;;7.60;7.00;;;43.10;25.60;;;;;;4897477;29;20239;-72
2023/06/25 07:58:06;;;;;;;6.90;6.40;;;42.70;25.10;;;;;;4907598;29;20187;-73
2023/06/25 08:00:33;;;;;;;7.13;6.63;;;42.20;25.20;;;;;;4903039;29;20442;-73
2023/06/25 08:02:59;;;;;;;7.13;6.50;;;41.20;25.80;;;;;;4900104;29;20500;-73
2023/06/25 08:05:25;;;;;;;5.63;5.23;;;40.60;25.90;;;;;;4895927;29;20479;-74
2023/06/25 08:07:50;;;;;;;7.77;7.17;;;40.00;26.30;;;;;;4896278;29;20189;-73
2023/06/25 08:10:16;;;;;;;7.43;6.70;;;40.30;26.40;;;;;;4898148;29;20778;-74
2023/06/25 08:12:41;;;;;;;7.23;6.60;;;40.40;26.50;;;;;;4896365;29;20345;-72
2023/06/25 08:15:07;;;;;;;6.97;6.47;;;41.70;26.10;;;;;;4895170;29;20194;-71
2023/06/25 08:17:33;;;;;;;7.23;6.70;;;43.20;25.50;;;;;;4898363;29;20339;-71
2023/06/25 08:19:58;;;;;;;6.80;6.30;;;44.70;25.60;;;;;;4896307;29;20216;-72
2023/06/25 08:22:24;;;;;;;7.20;6.70;;;44.00;23.50;;;;;;4898277;29;20229;-72
2023/06/25 08:24:50;;;;;;;6.60;6.10;;;43.00;24.10;;;;;;4899144;29;20229;-70
2023/06/25 08:27:16;;;;;;;7.33;6.77;;;43.80;24.90;;;;;;4893938;29;21067;-71
2023/06/25 08:29:42;;;;;;;7.07;6.57;;;43.10;24.20;;;;;;4893057;29;20870;-71
2023/06/25 08:32:08;;;;;;;6.80;6.30;;;43.90;23.80;;;;;;4890839;29;20942;-71
2023/06/25 08:34:33;;;;;;;7.00;6.60;;;43.50;23.70;;;;;;4902726;29;20477;-71
2023/06/25 08:36:59;;;;;;;7.30;6.80;;;43.40;24.00;;;;;;4892369;29;20447;-71
2023/06/25 08:39:25;;;;;;;7.07;6.57;;;43.30;23.50;;;;;;4899058;29;20190;-71
2023/06/25 08:41:50;;;;;;;7.97;7.37;;;43.00;23.40;;;;;;4902324;29;20297;-71
2023/06/25 08:44:16;;;;;;;6.93;6.33;;;42.60;23.90;;;;;;4899335;29;20215;-71
2023/06/25 08:46:49;;;;;;;7.40;6.90;;;43.00;24.10;;;;;;4897031;29;20187;-72
2023/06/25 08:49:16;;;;;;;7.30;6.80;;;42.70;23.90;;;;;;4907991;29;20273;-72
2023/06/25 08:51:42;;;;;;;6.90;6.40;;;43.10;24.10;;;;;;4898561;29;20478;-71
2023/06/25 08:54:08;;;;;;;7.17;6.67;;;42.30;23.10;;;;;;4898763;29;20506;-72
2023/06/25 08:56:34;;;;;;;7.03;6.57;;;41.30;24.30;;;;;;4898574;29;20975;-70
2023/06/25 08:59:00;;;;;;;7.10;6.60;;;43.00;24.30;;;;;;4899549;29;20446;-72
2023/06/25 09:01:26;;;;;;;6.73;6.23;;;42.60;23.40;;;;;;4894689;29;20922;-71
2023/06/25 09:03:52;;;;;;;7.47;6.97;;;42.20;24.10;;;;;;4896647;29;20179;-71
2023/06/25 09:06:18;;;;;;;6.00;5.60;;;41.90;24.10;;;;;;4900633;29;20246;-71
2023/06/25 09:08:44;;;;;;;6.40;6.00;;;42.20;24.10;;;;;;4901342;29;21151;-71
2023/06/25 09:11:10;;;;;;;6.60;6.10;;;41.70;24.30;;;;;;4896439;29;20730;-72
2023/06/25 09:13:38;;;;;;;6.50;6.00;;;41.40;24.50;;;;;;4897410;29;20218;-71
2023/06/25 09:16:07;;;;;;;6.33;5.83;;;41.60;24.00;;;;;;4894771;29;20506;-71
2023/06/25 09:18:32;;;;;;;7.10;6.60;;;40.80;24.40;;;;;;4899768;29;20457;-72
2023/06/25 09:21:07;;;;;;;6.33;5.93;;;41.20;24.00;;;;;;4894854;29;20483;-71
2023/06/25 09:23:33;;;;;;;6.53;6.03;;;41.20;24.30;;;;;;4900542;29;20211;-71
2023/06/25 09:26:06;;;;;;;6.40;5.90;;;41.20;24.10;;;;;;4901818;29;20462;-72
2023/06/25 09:28:31;;;;;;;6.23;5.80;;;41.70;23.40;;;;;;4898646;29;20506;-72
2023/06/25 09:30:57;;;;;;;6.00;5.60;;;42.20;22.80;;;;;;4895797;29;21147;-72
2023/06/25 09:33:30;;;;;;;6.67;6.20;;;41.80;22.70;;;;;;4898841;29;20220;-72
2023/06/25 09:36:01;;;;;;;6.10;5.70;;;42.20;23.10;;;;;;4901025;29;20193;-72
2023/06/25 09:38:26;;;;;;;6.10;5.70;;;43.00;22.60;;;;;;4896149;29;20454;-72
2023/06/25 09:40:53;;;;;;;6.47;5.97;;;43.60;22.40;;;;;;4898747;29;21035;-71
2023/06/25 09:43:20;;;;;;;6.67;6.17;;;42.40;21.70;;;;;;4899550;29;20194;-71
2023/06/25 09:45:45;;;;;;;6.40;5.90;;;42.70;22.40;;;;;;4898113;29;21258;-72
2023/06/25 09:48:12;;;;;;;6.60;6.10;;;42.60;22.40;;;;;;4899809;29;20522;-72
2023/06/25 09:50:44;;;;;;;7.07;6.37;;;42.90;21.70;;;;;;4895405;29;20206;-71
2023/06/25 09:53:16;;;;;;;6.43;6.00;;;43.50;21.40;;;;;;4892942;29;20467;-71
2023/06/25 09:55:42;;;;;;;5.70;5.30;;;43.10;21.70;;;;;;4894887;29;20558;-71
2023/06/25 09:58:09;;;;;;;5.90;5.40;;;43.50;20.70;;;;;;4896363;29;20546;-72
2023/06/25 10:00:37;;;;;;;6.90;6.40;;;43.60;20.80;;;;;;4898425;29;20479;-71
2023/06/25 10:03:03;;;;;;;6.20;5.80;;;43.00;20.20;;;;;;4902118;29;20481;-72
2023/06/25 10:05:30;;;;;;;6.07;5.67;;;42.60;20.90;;;;;;4897997;29;20438;-72
2023/06/25 10:07:56;;;;;;;6.53;6.13;;;42.60;21.10;;;;;;4898294;29;21320;-72
2023/06/25 10:10:23;;;;;;;6.17;5.67;;;43.10;21.20;;;;;;4897401;29;20435;-72
2023/06/25 10:12:49;;;;;;;7.20;6.70;;;43.00;21.20;;;;;;4899549;29;20679;-71
2023/06/25 10:15:28;;;;;;;6.67;6.17;;;42.80;21.40;;;;;;4901842;29;20455;-71
2023/06/25 10:17:56;;;;;;;6.43;5.83;;;43.10;21.20;;;;;;4893814;29;20443;-71
2023/06/25 10:20:30;;;;;;;7.23;6.63;;;43.00;21.70;;;;;;4897704;29;20455;-71
2023/06/25 10:23:06;;;;;;;7.57;6.97;;;42.00;22.30;;;;;;4896465;29;20485;-73
2023/06/25 10:25:32;;;;;;;7.10;6.60;;;41.10;22.40;;;;;;4896076;29;20468;-72
2023/06/25 10:28:13;;;;;;;7.00;6.40;;;41.00;22.40;;;;;;4895696;29;20451;-76
2023/06/25 10:30:49;;;;;;;6.73;6.23;;;41.30;22.50;;;;;;4904196;29;20979;-76
2023/06/25 10:33:19;;;;;;;6.93;6.43;;;41.30;22.80;;;;;;4902110;29;20482;-73
2023/06/25 10:35:47;;;;;;;7.57;6.97;;;40.80;22.70;;;;;;4898025;29;20488;-76
2023/06/25 10:38:13;;;;;;;7.97;7.30;;;40.90;22.70;;;;;;4902408;29;20447;-76
2023/06/25 10:40:40;;;;;;;7.57;6.97;;;40.50;22.80;;;;;;4909901;29;20979;-75
2023/06/25 10:43:06;;;;;;;6.87;6.37;;;40.20;23.20;;;;;;4900896;29;20618;-76
2023/06/25 10:45:33;;;;;;;7.00;6.47;;;41.00;23.20;;;;;;4901230;29;20518;-75
2023/06/25 10:48:10;;;;;;;7.33;6.73;;;41.70;22.50;;;;;;4899090;29;20538;-73
2023/06/25 10:50:37;;;;;;;7.20;6.70;;;42.20;22.60;;;;;;4892703;29;20473;-74
2023/06/25 10:53:09;;;;;;;7.27;6.77;;;40.30;22.50;;;;;;4899232;29;20850;-74
2023/06/25 10:55:34;;;;;;;7.57;6.97;;;40.60;22.90;;;;;;4895902;29;20440;-74
2023/06/25 10:58:01;;;;;;;7.20;6.70;;;41.20;22.40;;;;;;4898516;29;20439;-74
2023/06/25 11:00:29;;;;;;;7.43;6.70;;;41.50;22.30;;;;;;4897502;29;20613;-73
2023/06/25 11:02:55;;;;;;;7.20;6.70;;;41.30;22.60;;;;;;4900415;29;20820;-74
2023/06/25 11:05:35;;;;;;;8.20;7.50;;;41.70;22.40;;;;;;4897813;29;20449;-78
2023/06/25 11:08:04;;;;;;;8.00;7.40;;;41.70;22.10;;;;;;4907377;29;20451;-81
2023/06/25 11:10:31;;;;;;;7.93;7.33;;;42.00;22.20;;;;;;4903824;29;20545;-69
2023/06/25 11:12:56;;;;;;;7.80;7.20;;;41.80;22.50;;;;;;4900496;29;20481;-73
2023/06/25 11:15:22;;;;;;;8.40;7.80;;;41.50;22.50;;;;;;4900365;29;20935;-73
2023/06/25 11:17:54;;;;;;;7.93;7.33;;;41.00;21.80;;;;;;4893643;29;20202;-71
2023/06/25 11:20:23;;;;;;;8.20;7.60;;;40.50;22.50;;;;;;4899136;29;20246;-73
2023/06/25 11:22:50;;;;;;;7.10;6.60;;;40.70;22.70;;;;;;4898022;29;20479;-74
2023/06/25 11:25:16;;;;;;;8.40;7.73;;;41.40;22.50;;;;;;4898103;29;20964;-73
2023/06/25 11:27:42;;;;;;;8.20;7.60;;;40.80;22.20;;;;;;4898087;29;20442;-72
2023/06/25 11:30:08;;;;;;;8.27;7.67;;;40.50;22.50;;;;;;4896095;29;20445;-72
2023/06/25 11:32:35;;;;;;;8.00;7.30;;;39.60;23.20;;;;;;4896117;29;20207;-73
2023/06/25 11:35:12;;;;;;;7.67;7.10;;;39.60;23.30;;;;;;4897380;29;20455;-73
2023/06/25 11:37:48;;;;;;;8.17;7.57;;;39.90;23.00;;;;;;4896240;29;20450;-73
2023/06/25 11:40:41;;;;;;;7.47;6.87;;;38.90;23.20;;;;;;4897213;29;21436;-74
2023/06/25 11:43:08;;;;;;;7.93;7.33;;;39.90;23.30;;;;;;4896696;29;20470;-75
2023/06/25 11:45:41;;;;;;;8.20;7.60;;;38.90;23.30;;;;;;4901698;29;20469;-75
2023/06/25 11:48:12;;;;;;;7.87;7.23;;;38.40;23.10;;;;;;4902682;29;20447;-73
2023/06/25 11:50:38;;;;;;;7.50;6.90;;;37.50;24.20;;;;;;4904618;29;20446;-73
2023/06/25 11:53:03;;;;;;;7.80;7.20;;;37.70;24.10;;;;;;4896224;29;20473;-75
2023/06/25 11:55:29;;;;;;;7.63;7.03;;;36.20;25.00;;;;;;4898215;29;20202;-73
2023/06/25 11:57:55;;;;;;;8.00;7.30;;;35.80;25.80;;;;;;4896025;29;20195;-74
2023/06/25 12:00:21;;;;;;;7.60;7.00;;;34.80;26.30;;;;;;4897168;29;20870;-73
2023/06/25 12:02:46;;;;;;;8.00;7.30;;;34.00;27.00;;;;;;4899197;29;20222;-73
2023/06/25 12:05:13;;;;;;;9.43;8.60;;;33.20;27.60;;;;;;4902085;29;20311;-73
2023/06/25 12:07:38;;;;;;;7.87;7.17;;;32.80;28.20;;;;;;4902160;29;20198;-73
2023/06/25 12:10:05;;;;;;;8.70;8.00;;;32.40;28.10;;;;;;4896056;29;20442;-73
2023/06/25 12:12:30;;;;;;;7.60;7.00;;;32.20;28.80;;;;;;4895800;29;20217;-73
2023/06/25 12:14:56;;;;;;;8.37;7.57;;;32.00;29.10;;;;;;4900935;29;20443;-73
2023/06/25 12:17:21;;;;;;;8.00;7.20;;;31.80;29.00;;;;;;4896361;29;20192;-74
2023/06/25 12:19:47;;;;;;;7.43;6.83;;;31.60;29.10;;;;;;4906405;29;20201;-73
2023/06/25 12:22:13;;;;;;;7.90;7.20;;;31.50;29.60;;;;;;4903100;29;20224;-74
2023/06/25 12:24:38;;;;;;;8.10;7.30;;;31.40;29.70;;;;;;4903282;29;20200;-74
2023/06/25 12:27:04;;;;;;;7.93;7.33;;;31.40;29.50;;;;;;4897833;29;20282;-73
2023/06/25 12:29:31;;;;;;;8.37;7.67;;;31.40;29.60;;;;;;4902003;29;21128;-74
2023/06/25 12:31:57;;;;;;;8.57;7.77;;;31.40;29.40;;;;;;4910447;29;20195;-73
2023/06/25 12:34:22;;;;;;;7.53;6.83;;;31.40;30.00;;;;;;4906894;29;20461;-74
2023/06/25 12:36:51;;;;;;;7.63;7.03;;;31.40;29.90;;;;;;4905065;29;20636;-74
2023/06/25 12:39:16;;;;;;;7.43;6.70;;;31.20;29.30;;;;;;4898042;29;20201;-74
2023/06/25 12:41:42;;;;;;;7.50;6.80;;;31.10;29.50;;;;;;4903723;29;20560;-72
2023/06/25 12:44:08;;;;;;;7.77;7.17;;;31.20;30.00;;;;;;4902965;29;20289;-74
2023/06/25 12:46:33;;;;;;;7.60;7.00;;;31.00;29.40;;;;;;4902628;29;20217;-73